Time;durP1;ratioP1;P1;durP2;ratioP2;P2;SDS_P1;SDS_P2;PMS_P1;PMS_P2;Temp;Humidity;BMP_temperature;BMP_pressure;BME280_temperature;BME280_humidity;BME280_pressure;Samples;Min_cycle;Max_cycle;Signal;HPM_P1;HPM_P2
2023/06/27 00:01:22;;;;;;;10.80;5.55;;;27.10;60.50;;;;;;5050578;28;20105;-54
2023/06/27 00:03:51;;;;;;;11.85;5.45;;;27.10;60.50;;;;;;5077361;28;20101;-54
2023/06/27 00:06:19;;;;;;;10.80;5.53;;;27.00;60.50;;;;;;5067508;28;20117;-54
2023/06/27 00:08:47;;;;;;;13.48;5.80;;;27.00;60.50;;;;;;5084757;28;20035;-54
2023/06/27 00:11:13;;;;;;;13.80;5.15;;;27.00;60.50;;;;;;5075974;28;20097;-54
2023/06/27 00:13:40;;;;;;;10.35;5.30;;;27.00;60.50;;;;;;5065758;28;20032;-54
2023/06/27 00:16:06;;;;;;;10.95;5.43;;;26.90;60.50;;;;;;5085201;28;20199;-54
2023/06/27 00:18:34;;;;;;;11.95;4.70;;;26.90;60.60;;;;;;5050238;28;20029;-53
2023/06/27 00:21:00;;;;;;;13.43;4.45;;;26.90;60.60;;;;;;5068343;28;20468;-54
2023/06/27 00:23:33;;;;;;;7.45;4.72;;;26.90;60.60;;;;;;5066509;28;20039;-54
2023/06/27 00:26:02;;;;;;;6.93;4.32;;;26.90;60.60;;;;;;5067271;28;20058;-54
2023/06/27 00:28:28;;;;;;;9.35;5.20;;;26.80;60.40;;;;;;5070690;28;20115;-54
2023/06/27 00:30:53;;;;;;;10.10;4.80;;;26.80;60.50;;;;;;5084758;28;20044;-54
2023/06/27 00:33:19;;;;;;;11.02;4.90;;;26.80;60.60;;;;;;5061484;28;20056;-54
2023/06/27 00:35:44;;;;;;;14.35;4.78;;;26.80;60.50;;;;;;5050895;28;20136;-54
2023/06/27 00:38:10;;;;;;;10.43;5.03;;;26.80;60.60;;;;;;5076637;28;20037;-54
2023/06/27 00:40:36;;;;;;;8.48;4.28;;;26.70;60.70;;;;;;5047499;28;20032;-54
2023/06/27 00:43:02;;;;;;;6.97;4.30;;;26.70;60.60;;;;;;5066121;28;20051;-54
2023/06/27 00:45:27;;;;;;;7.63;4.80;;;26.70;60.70;;;;;;5066398;28;20059;-54
2023/06/27 00:47:53;;;;;;;9.95;5.15;;;26.70;60.70;;;;;;5054933;28;20029;-54
2023/06/27 00:50:20;;;;;;;6.60;4.35;;;26.70;60.70;;;;;;5042527;28;20052;-54
2023/06/27 00:52:46;;;;;;;9.95;5.25;;;26.70;60.70;;;;;;5065527;28;20082;-54
2023/06/27 00:55:11;;;;;;;8.05;4.97;;;26.70;60.70;;;;;;5050353;28;20453;-54
2023/06/27 00:57:37;;;;;;;10.63;5.20;;;26.60;60.60;;;;;;5073850;28;20330;-54
2023/06/27 01:00:03;;;;;;;14.18;5.32;;;26.60;60.60;;;;;;5065903;28;20032;-54
2023/06/27 01:02:28;;;;;;;6.30;4.55;;;26.60;60.60;;;;;;5065379;28;20078;-54
2023/06/27 01:04:54;;;;;;;6.75;5.18;;;26.50;60.50;;;;;;5066560;28;20319;-54
2023/06/27 01:07:29;;;;;;;6.57;4.55;;;26.60;60.50;;;;;;5066155;28;20024;-54
2023/06/27 01:09:58;;;;;;;8.32;4.43;;;26.50;60.50;;;;;;5047279;28;20350;-54
2023/06/27 01:12:39;;;;;;;6.72;4.30;;;26.50;60.50;;;;;;5049271;28;20052;-54
2023/06/27 01:15:06;;;;;;;10.52;4.20;;;26.50;60.50;;;;;;5049853;28;20059;-54
2023/06/27 01:17:32;;;;;;;6.82;4.55;;;26.50;60.60;;;;;;5065983;28;20025;-53
2023/06/27 01:19:59;;;;;;;6.13;4.18;;;26.40;60.60;;;;;;5052870;28;20071;-54
2023/06/27 01:22:33;;;;;;;11.07;4.35;;;26.40;60.60;;;;;;5060622;28;20489;-54
2023/06/27 01:25:02;;;;;;;7.80;3.80;;;26.40;60.40;;;;;;5065030;28;20067;-54
2023/06/27 01:27:28;;;;;;;6.40;3.90;;;26.40;60.40;;;;;;5070081;28;20025;-54
2023/06/27 01:29:54;;;;;;;10.15;3.72;;;26.30;60.30;;;;;;5049596;28;20103;-54
2023/06/27 01:32:42;;;;;;;7.03;3.92;;;26.30;60.30;;;;;;5084060;28;20037;-54
2023/06/27 01:35:46;;;;;;;6.90;3.45;;;26.20;60.30;;;;;;5062180;28;20033;-54
2023/06/27 01:38:15;;;;;;;6.90;3.60;;;26.20;60.40;;;;;;5076372;28;20028;-54
2023/06/27 01:40:41;;;;;;;5.95;3.40;;;26.20;60.40;;;;;;5066292;28;20029;-54
2023/06/27 01:43:10;;;;;;;8.10;3.63;;;26.20;60.50;;;;;;5065651;28;20025;-54
2023/06/27 01:45:36;;;;;;;5.90;3.58;;;26.20;60.50;;;;;;5064967;28;20040;-54
2023/06/27 01:48:02;;;;;;;7.25;3.60;;;26.10;60.40;;;;;;5059213;28;20115;-54
2023/06/27 01:50:28;;;;;;;4.22;3.28;;;26.20;60.40;;;;;;5065355;28;20032;-54
2023/06/27 01:52:53;;;;;;;6.03;3.35;;;26.10;60.40;;;;;;5061703;28;20044;-54
2023/06/27 01:55:19;;;;;;;4.82;3.08;;;26.10;60.20;;;;;;5069103;28;20447;-54
2023/06/27 01:57:44;;;;;;;7.47;3.38;;;26.00;60.20;;;;;;5080120;28;20032;-53
2023/06/27 02:00:10;;;;;;;5.10;3.28;;;26.00;60.20;;;;;;5045997;28;20033;-54
2023/06/27 02:02:36;;;;;;;5.65;3.53;;;26.00;60.10;;;;;;5077940;28;20372;-54
2023/06/27 02:05:01;;;;;;;6.30;3.33;;;26.00;60.00;;;;;;5066160;28;20033;-54
2023/06/27 02:07:27;;;;;;;4.53;2.72;;;26.00;60.00;;;;;;5082631;28;20158;-54
2023/06/27 02:09:52;;;;;;;6.82;2.95;;;26.00;60.00;;;;;;5081806;28;20037;-54
2023/06/27 02:12:18;;;;;;;5.15;3.20;;;25.90;60.00;;;;;;5045827;28;20084;-54
2023/06/27 02:14:44;;;;;;;4.55;2.78;;;25.90;60.10;;;;;;5080005;28;20512;-54
2023/06/27 02:17:10;;;;;;;5.70;2.58;;;25.90;60.10;;;;;;5065494;28;20036;-54
2023/06/27 02:19:36;;;;;;;7.38;3.30;;;25.80;60.00;;;;;;5056417;28;20119;-54
2023/06/27 02:22:02;;;;;;;5.93;3.65;;;25.80;60.10;;;;;;5070818;28;20100;-54
2023/06/27 02:24:27;;;;;;;6.70;3.38;;;25.80;60.00;;;;;;5071150;28;20391;-53
2023/06/27 02:26:53;;;;;;;4.45;2.92;;;25.80;60.00;;;;;;5056402;28;20056;-54
2023/06/27 02:29:18;;;;;;;5.85;3.40;;;25.80;60.00;;;;;;5067536;28;20104;-53
2023/06/27 02:31:44;;;;;;;5.68;2.78;;;25.70;60.00;;;;;;5049477;28;20025;-54
2023/06/27 02:34:09;;;;;;;4.65;3.22;;;25.70;60.00;;;;;;5080817;28;20444;-54
2023/06/27 02:36:35;;;;;;;6.10;3.50;;;25.70;60.10;;;;;;5071098;28;20162;-54
2023/06/27 02:39:01;;;;;;;4.60;3.28;;;25.70;60.00;;;;;;5054210;28;20025;-54
2023/06/27 02:41:26;;;;;;;6.75;3.70;;;25.70;60.00;;;;;;5059023;28;20029;-54
2023/06/27 02:43:52;;;;;;;4.95;2.97;;;25.60;60.00;;;;;;5080921;28;20036;-54
2023/06/27 02:46:17;;;;;;;7.80;3.10;;;25.60;60.00;;;;;;5085864;28;20024;-54
2023/06/27 02:48:43;;;;;;;6.72;3.03;;;25.60;60.00;;;;;;5066757;28;20476;-54
2023/06/27 02:51:09;;;;;;;5.10;3.15;;;25.60;60.00;;;;;;5059597;28;20043;-54
2023/06/27 02:53:34;;;;;;;5.50;2.95;;;25.60;59.90;;;;;;5073372;28;20056;-54
2023/06/27 02:56:03;;;;;;;5.93;3.63;;;25.50;60.00;;;;;;5082995;28;20039;-54
2023/06/27 02:58:31;;;;;;;5.05;3.67;;;25.50;60.00;;;;;;5051969;28;20107;-54
2023/06/27 03:00:59;;;;;;;6.72;3.35;;;25.50;59.90;;;;;;5081320;28;20029;-54
2023/06/27 03:03:25;;;;;;;5.00;3.30;;;25.40;59.80;;;;;;5075908;28;20028;-54
2023/06/27 03:05:50;;;;;;;10.73;3.53;;;25.50;59.90;;;;;;5068738;28;20036;-54
2023/06/27 03:08:16;;;;;;;6.32;3.20;;;25.40;59.90;;;;;;5067893;28;20055;-54
2023/06/27 03:10:42;;;;;;;5.35;3.13;;;25.40;60.00;;;;;;5085466;28;20033;-54
2023/06/27 03:13:07;;;;;;;8.02;3.90;;;25.40;59.90;;;;;;5067856;28;20218;-54
2023/06/27 03:15:33;;;;;;;5.68;3.63;;;25.40;59.90;;;;;;5085801;28;20047;-54
2023/06/27 03:17:58;;;;;;;4.95;3.40;;;25.40;59.90;;;;;;5068035;28;20107;-54
2023/06/27 03:20:24;;;;;;;6.18;3.50;;;25.40;59.90;;;;;;5086575;28;20033;-54
2023/06/27 03:22:49;;;;;;;6.35;3.40;;;25.30;60.00;;;;;;5085951;28;20031;-54
2023/06/27 03:25:15;;;;;;;5.22;3.47;;;25.30;59.90;;;;;;5050836;28;20142;-54
2023/06/27 03:27:41;;;;;;;5.40;3.40;;;25.30;60.00;;;;;;5084425;28;20047;-54
2023/06/27 03:30:07;;;;;;;6.43;3.55;;;25.30;60.00;;;;;;5068206;28;20024;-54
2023/06/27 03:32:33;;;;;;;5.82;3.25;;;25.30;60.00;;;;;;5084724;28;20040;-54
2023/06/27 03:34:59;;;;;;;6.80;3.35;;;25.30;60.10;;;;;;5046617;28;20033;-54
2023/06/27 03:37:25;;;;;;;3.90;2.92;;;25.20;60.00;;;;;;5073435;28;20047;-54
2023/06/27 03:39:50;;;;;;;8.77;3.08;;;25.20;60.10;;;;;;5085395;28;20098;-54
2023/06/27 03:42:16;;;;;;;5.00;3.42;;;25.20;60.10;;;;;;5064710;28;20124;-54
2023/06/27 03:44:42;;;;;;;7.00;3.20;;;25.20;60.20;;;;;;5083545;28;20020;-54
2023/06/27 03:47:08;;;;;;;6.53;3.15;;;25.20;60.10;;;;;;5067420;28;20155;-54
2023/06/27 03:49:33;;;;;;;4.72;3.10;;;25.10;60.00;;;;;;5067847;28;20241;-54
2023/06/27 03:51:59;;;;;;;3.33;2.60;;;25.20;60.00;;;;;;5067190;28;20090;-54
2023/06/27 03:54:24;;;;;;;5.78;3.05;;;25.10;59.90;;;;;;5082741;28;20074;-53
2023/06/27 03:56:50;;;;;;;6.30;2.95;;;25.10;60.70;;;;;;5067346;28;20016;-54
2023/06/27 03:59:16;;;;;;;5.97;2.80;;;25.10;59.90;;;;;;5067347;28;20044;-54
2023/06/27 04:01:41;;;;;;;11.73;3.30;;;25.10;60.00;;;;;;5085256;28;20067;-54
2023/06/27 04:04:10;;;;;;;38.80;5.55;;;25.10;60.00;;;;;;5050718;28;20021;-54
2023/06/27 04:06:35;;;;;;;41.72;7.40;;;25.10;60.00;;;;;;5047722;28;20036;-54
2023/06/27 04:09:02;;;;;;;31.73;6.32;;;25.10;60.00;;;;;;5071158;28;20039;-51
2023/06/27 04:11:28;;;;;;;30.60;5.70;;;25.00;60.00;;;;;;5076384;28;20056;-54
2023/06/27 04:13:56;;;;;;;65.93;11.40;;;25.00;60.00;;;;;;5047328;28;20132;-54
2023/06/27 04:16:22;;;;;;;29.98;6.13;;;25.00;60.00;;;;;;5064148;28;20024;-54
2023/06/27 04:18:47;;;;;;;18.38;5.47;;;25.00;60.10;;;;;;5076890;28;20020;-54
2023/06/27 04:21:13;;;;;;;23.02;5.07;;;24.90;60.00;;;;;;5084570;28;20055;-54
2023/06/27 04:23:38;;;;;;;34.28;6.22;;;24.90;60.00;;;;;;5064248;28;20385;-54
2023/06/27 04:26:05;;;;;;;28.67;7.07;;;24.90;60.10;;;;;;5075614;28;20024;-54
2023/06/27 04:28:31;;;;;;;33.80;6.50;;;24.90;60.10;;;;;;5066635;28;20032;-54
2023/06/27 04:30:57;;;;;;;32.03;7.35;;;24.90;60.20;;;;;;5063479;28;20064;-54
2023/06/27 04:33:23;;;;;;;38.80;7.22;;;24.90;60.30;;;;;;5062517;28;20025;-54
2023/06/27 04:35:48;;;;;;;33.15;7.18;;;24.90;60.30;;;;;;5072399;28;20063;-54
2023/06/27 04:38:14;;;;;;;34.00;6.03;;;24.80;60.30;;;;;;5084469;28;20086;-54
2023/06/27 04:40:41;;;;;;;31.33;6.80;;;24.90;60.40;;;;;;5066484;28;20108;-54
2023/06/27 04:43:07;;;;;;;31.77;6.13;;;24.80;60.20;;;;;;5083515;28;20035;-54
2023/06/27 04:45:33;;;;;;;27.02;6.53;;;24.80;60.20;;;;;;5084027;28;20033;-53
2023/06/27 04:47:58;;;;;;;30.35;6.70;;;24.80;60.40;;;;;;5064574;28;20039;-54
2023/06/27 04:50:24;;;;;;;33.60;6.50;;;24.80;60.40;;;;;;5084103;28;20028;-54
2023/06/27 04:52:49;;;;;;;26.33;6.30;;;24.80;60.50;;;;;;5083743;28;20048;-54
2023/06/27 04:55:15;;;;;;;27.15;6.35;;;24.80;60.50;;;;;;5079514;28;20032;-54
2023/06/27 04:57:41;;;;;;;26.60;5.80;;;24.80;60.40;;;;;;5064221;28;20047;-54
2023/06/27 05:00:10;;;;;;;26.45;5.50;;;24.80;60.50;;;;;;5064991;28;20033;-54
2023/06/27 05:02:36;;;;;;;36.38;6.53;;;24.80;60.50;;;;;;5081710;28;20021;-54
2023/06/27 05:05:02;;;;;;;33.83;6.07;;;24.80;60.60;;;;;;5082105;28;20036;-54
2023/06/27 05:07:28;;;;;;;25.10;6.03;;;24.70;60.60;;;;;;5054083;28;20029;-53
2023/06/27 05:09:53;;;;;;;22.48;5.35;;;24.70;60.50;;;;;;5063381;28;20082;-54
2023/06/27 05:12:19;;;;;;;25.42;5.47;;;24.70;60.60;;;;;;5071797;28;20464;-54
2023/06/27 05:14:45;;;;;;;24.60;6.18;;;24.70;60.50;;;;;;5066689;28;20063;-54
2023/06/27 05:17:10;;;;;;;20.00;5.05;;;24.70;60.50;;;;;;5083731;28;20465;-54
2023/06/27 05:19:36;;;;;;;28.23;6.25;;;24.70;60.50;;;;;;5067740;28;20029;-55
2023/06/27 05:22:02;;;;;;;18.17;5.38;;;24.70;60.60;;;;;;5072738;28;20021;-54
2023/06/27 05:24:27;;;;;;;19.33;4.85;;;24.70;60.60;;;;;;5083106;28;20040;-54
2023/06/27 05:26:53;;;;;;;22.05;5.05;;;24.70;60.60;;;;;;5084330;28;20408;-54
2023/06/27 05:29:18;;;;;;;14.70;4.15;;;24.70;60.60;;;;;;5062061;28;20131;-54
2023/06/27 05:31:44;;;;;;;16.27;4.30;;;24.70;60.40;;;;;;5083924;28;20074;-54
2023/06/27 05:34:12;;;;;;;15.50;4.20;;;24.60;60.40;;;;;;5065350;28;20449;-54
2023/06/27 05:36:37;;;;;;;24.38;4.15;;;24.60;60.40;;;;;;5047247;28;20029;-55
2023/06/27 05:39:03;;;;;;;17.77;4.45;;;24.60;60.40;;;;;;5064683;28;20107;-53
2023/06/27 05:41:30;;;;;;;18.38;3.83;;;24.60;60.40;;;;;;5065728;28;20112;-54
2023/06/27 05:43:55;;;;;;;12.80;3.35;;;24.60;60.30;;;;;;5066504;28;20047;-54
2023/06/27 05:46:21;;;;;;;10.55;2.88;;;24.50;60.30;;;;;;5083590;28;20453;-54
2023/06/27 05:48:47;;;;;;;10.40;2.70;;;24.50;60.50;;;;;;5077813;28;20045;-54
2023/06/27 05:51:12;;;;;;;12.88;2.58;;;24.40;60.50;;;;;;5066338;28;20093;-54
2023/06/27 05:53:39;;;;;;;6.50;2.70;;;24.40;60.60;;;;;;5065134;28;20082;-54
2023/06/27 05:56:05;;;;;;;11.25;2.42;;;24.30;60.70;;;;;;5080457;28;20040;-54
2023/06/27 05:58:31;;;;;;;10.35;2.38;;;24.30;60.80;;;;;;5041456;28;20029;-54
2023/06/27 06:00:56;;;;;;;12.13;2.50;;;24.20;61.00;;;;;;5070039;28;20068;-54
2023/06/27 06:03:22;;;;;;;9.68;2.42;;;24.20;61.00;;;;;;5055939;28;20020;-54
2023/06/27 06:05:48;;;;;;;9.38;2.20;;;24.20;61.00;;;;;;5054064;28;20437;-54
2023/06/27 06:08:14;;;;;;;9.10;2.78;;;24.10;60.90;;;;;;5068192;28;20020;-54
2023/06/27 06:10:39;;;;;;;5.38;1.98;;;24.10;61.00;;;;;;5057617;28;20033;-54
2023/06/27 06:13:05;;;;;;;9.95;2.28;;;24.10;61.20;;;;;;5077483;28;20464;-54
2023/06/27 06:15:30;;;;;;;12.85;2.67;;;24.10;61.20;;;;;;5069401;28;20469;-53
2023/06/27 06:17:56;;;;;;;10.40;2.90;;;24.00;61.30;;;;;;5071314;28;20453;-54
2023/06/27 06:20:21;;;;;;;8.68;2.33;;;24.00;61.40;;;;;;5078875;28;20449;-54
2023/06/27 06:22:47;;;;;;;12.25;2.70;;;24.00;61.50;;;;;;5068737;28;20483;-55
2023/06/27 06:25:12;;;;;;;11.32;3.30;;;24.10;61.50;;;;;;5069306;28;20032;-54
2023/06/27 06:27:38;;;;;;;8.95;2.47;;;24.10;61.50;;;;;;5065678;28;20036;-54
2023/06/27 06:30:04;;;;;;;10.80;2.63;;;24.00;61.40;;;;;;5047982;28;20028;-54
2023/06/27 06:32:29;;;;;;;9.02;2.58;;;24.00;61.40;;;;;;5065039;28;20108;-54
2023/06/27 06:34:55;;;;;;;16.27;2.63;;;24.00;61.50;;;;;;5067201;28;20025;-54
2023/06/27 06:37:21;;;;;;;13.90;3.22;;;24.00;61.60;;;;;;5067957;28;20020;-54
2023/06/27 06:39:46;;;;;;;15.45;3.28;;;23.90;61.50;;;;;;5063122;28;20040;-54
2023/06/27 06:42:12;;;;;;;9.52;2.55;;;23.90;61.60;;;;;;5085543;28;20054;-54
2023/06/27 06:44:37;;;;;;;7.25;2.33;;;23.90;61.70;;;;;;5067789;28;20033;-54
2023/06/27 06:47:03;;;;;;;14.07;2.72;;;23.90;61.80;;;;;;5086068;28;20329;-54
2023/06/27 06:49:29;;;;;;;9.75;2.60;;;23.80;61.90;;;;;;5048050;28;20040;-54
2023/06/27 06:51:54;;;;;;;13.13;2.63;;;23.80;61.80;;;;;;5068640;28;20021;-54
2023/06/27 06:54:20;;;;;;;9.30;2.58;;;23.90;62.00;;;;;;5073952;28;20051;-54
2023/06/27 06:56:46;;;;;;;7.07;2.47;;;23.90;61.90;;;;;;5053892;28;20426;-54
2023/06/27 06:59:11;;;;;;;11.55;2.40;;;23.80;61.90;;;;;;5086193;28;20021;-54
2023/06/27 07:01:37;;;;;;;11.05;2.75;;;23.80;61.90;;;;;;5085676;28;20490;-54
2023/06/27 07:04:02;;;;;;;9.90;2.80;;;23.80;62.00;;;;;;5085572;28;20040;-54
2023/06/27 07:06:28;;;;;;;9.60;2.50;;;23.80;62.20;;;;;;5086142;28;20032;-54
2023/06/27 07:08:54;;;;;;;7.30;2.40;;;23.80;62.30;;;;;;5068393;28;20040;-54
2023/06/27 07:11:20;;;;;;;9.75;2.45;;;23.80;62.30;;;;;;5046826;28;20129;-54
2023/06/27 07:13:45;;;;;;;24.63;4.57;;;23.70;62.30;;;;;;5066461;28;20149;-54
2023/06/27 07:16:11;;;;;;;24.27;4.55;;;23.70;62.30;;;;;;5085702;28;20028;-54
2023/06/27 07:18:36;;;;;;;14.68;3.78;;;23.70;62.40;;;;;;5086790;28;20028;-54
2023/06/27 07:21:02;;;;;;;82.32;11.02;;;23.70;62.30;;;;;;5087176;28;20062;-54
2023/06/27 07:23:27;;;;;;;54.78;6.90;;;23.70;63.10;;;;;;5067037;28;20029;-54
2023/06/27 07:25:53;;;;;;;16.80;4.05;;;23.70;62.50;;;;;;5084649;28;20128;-54
2023/06/27 07:28:20;;;;;;;15.15;3.78;;;23.60;62.40;;;;;;5081385;28;20162;-54
2023/06/27 07:30:46;;;;;;;57.83;7.32;;;23.70;62.50;;;;;;5084933;28;20043;-54
2023/06/27 07:33:12;;;;;;;16.20;3.85;;;23.70;62.50;;;;;;5076295;28;20028;-54
2023/06/27 07:35:37;;;;;;;25.13;4.28;;;23.70;62.40;;;;;;5059343;28;20119;-54
2023/06/27 07:38:03;;;;;;;12.60;3.42;;;23.70;62.40;;;;;;5065447;28;20021;-53
2023/06/27 07:40:28;;;;;;;31.33;4.30;;;23.70;62.50;;;;;;5084095;28;20132;-54
2023/06/27 07:42:54;;;;;;;23.65;4.55;;;23.70;62.40;;;;;;5085743;28;20195;-54
2023/06/27 07:45:20;;;;;;;28.95;4.10;;;23.70;62.40;;;;;;5084515;28;20033;-54
2023/06/27 07:47:45;;;;;;;17.55;3.67;;;23.70;62.40;;;;;;5065542;28;20078;-54
2023/06/27 07:50:11;;;;;;;19.73;3.33;;;23.70;62.40;;;;;;5067223;28;20036;-54
2023/06/27 07:52:36;;;;;;;19.05;3.65;;;23.70;62.30;;;;;;5049588;28;20035;-54
2023/06/27 07:55:02;;;;;;;29.92;3.80;;;23.70;62.30;;;;;;5060420;28;20100;-54
2023/06/27 07:57:27;;;;;;;25.30;4.13;;;23.70;62.40;;;;;;5081362;28;20020;-54
2023/06/27 07:59:53;;;;;;;22.08;3.80;;;23.70;62.70;;;;;;5079844;28;20025;-54
2023/06/27 08:02:18;;;;;;;39.72;5.95;;;23.70;62.70;;;;;;5062306;28;20025;-54
2023/06/27 08:04:44;;;;;;;18.08;3.65;;;23.80;62.60;;;;;;5084201;28;20044;-54
2023/06/27 08:07:10;;;;;;;22.48;3.78;;;23.80;62.50;;;;;;5076345;28;20045;-54
2023/06/27 08:14:40;;;;;;;25.33;6.65;;;23.80;62.60;;;;;;5062970;28;20573;-51
2023/06/27 08:17:05;;;;;;;23.98;6.45;;;23.80;62.80;;;;;;5047344;28;20024;-52
2023/06/27 08:19:31;;;;;;;37.03;6.75;;;23.90;62.80;;;;;;5063907;28;20028;-51
2023/06/27 08:21:56;;;;;;;35.70;5.18;;;23.90;62.70;;;;;;5047940;28;20025;-51
2023/06/27 08:24:22;;;;;;;31.40;5.85;;;23.90;62.70;;;;;;5015424;28;20025;-51
2023/06/27 08:26:49;;;;;;;56.05;6.95;;;24.00;62.70;;;;;;5046246;28;20044;-52
2023/06/27 08:29:16;;;;;;;39.30;5.47;;;24.00;62.70;;;;;;5062978;28;20029;-52
2023/06/27 08:31:42;;;;;;;38.70;6.57;;;24.00;62.70;;;;;;5042293;28;20028;-49
2023/06/27 08:34:07;;;;;;;44.88;7.32;;;24.00;62.70;;;;;;5033795;28;20163;-51
2023/06/27 08:36:33;;;;;;;61.00;8.18;;;24.00;62.80;;;;;;5058847;28;20467;-51
2023/06/27 08:38:59;;;;;;;220.30;14.00;;;24.00;62.80;;;;;;5059715;28;20014;-52
2023/06/27 08:41:24;;;;;;;271.23;21.15;;;24.00;62.90;;;;;;5058854;28;20041;-53
2023/06/27 08:43:50;;;;;;;76.70;8.77;;;24.10;63.60;;;;;;5027719;28;20044;-52
2023/06/27 08:46:15;;;;;;;94.60;9.32;;;24.10;62.80;;;;;;5065548;28;20035;-53
2023/06/27 08:48:41;;;;;;;106.28;12.38;;;24.00;62.60;;;;;;5057016;28;20036;-51
2023/06/27 08:51:18;;;;;;;440.40;42.35;;;24.00;62.50;;;;;;5055795;28;20032;-52
2023/06/27 08:53:44;;;;;;;87.93;8.50;;;24.00;62.50;;;;;;5049272;28;20033;-52
2023/06/27 08:56:14;;;;;;;69.07;8.57;;;24.00;62.70;;;;;;5082030;28;20306;-53
2023/06/27 08:58:55;;;;;;;69.22;9.02;;;24.00;62.50;;;;;;5039364;28;20050;-51
2023/06/27 09:01:22;;;;;;;42.78;6.13;;;24.00;62.60;;;;;;5050215;28;20029;-51
2023/06/27 09:03:48;;;;;;;48.88;6.32;;;24.10;62.70;;;;;;5028372;28;20029;-51
2023/06/27 09:06:14;;;;;;;124.97;14.57;;;24.10;62.60;;;;;;5042385;28;20039;-51
2023/06/27 09:08:40;;;;;;;101.03;12.25;;;24.10;62.50;;;;;;5027617;28;20032;-52
2023/06/27 09:11:09;;;;;;;215.60;20.17;;;24.10;62.40;;;;;;5041363;28;20035;-52
2023/06/27 09:13:36;;;;;;;114.18;13.70;;;24.20;62.60;;;;;;5031187;28;20102;-52
2023/06/27 09:16:03;;;;;;;157.25;13.77;;;24.20;62.30;;;;;;5055109;28;20036;-52
2023/06/27 09:18:29;;;;;;;79.63;9.68;;;24.20;62.20;;;;;;5027170;28;20025;-51
2023/06/27 09:20:56;;;;;;;56.05;7.55;;;24.30;62.30;;;;;;5041208;28;20117;-52
2023/06/27 09:23:21;;;;;;;22.25;5.20;;;24.30;62.30;;;;;;5023918;28;20029;-52
2023/06/27 09:26:06;;;;;;;85.85;10.38;;;24.40;62.20;;;;;;5062570;28;20033;-52
2023/06/27 09:28:32;;;;;;;65.47;8.23;;;24.40;62.20;;;;;;5030636;28;20040;-52
2023/06/27 09:30:57;;;;;;;65.07;8.95;;;24.40;62.10;;;;;;5062064;28;20025;-51
2023/06/27 09:33:23;;;;;;;47.97;5.68;;;24.40;62.10;;;;;;5049687;28;20033;-52
2023/06/27 09:35:50;;;;;;;130.52;10.88;;;24.40;62.00;;;;;;5067199;28;20037;-52
2023/06/27 09:38:16;;;;;;;143.55;12.35;;;24.40;61.90;;;;;;5050297;28;20029;-53
2023/06/27 09:40:42;;;;;;;49.17;6.22;;;24.40;61.80;;;;;;5051980;28;20021;-52
2023/06/27 09:43:08;;;;;;;63.78;6.53;;;24.40;61.40;;;;;;5043916;28;20043;-52
2023/06/27 09:45:33;;;;;;;43.85;5.32;;;24.40;61.40;;;;;;5069029;28;20093;-52
2023/06/27 09:47:59;;;;;;;50.95;5.40;;;24.40;61.50;;;;;;5048288;28;20037;-52
2023/06/27 09:50:29;;;;;;;31.67;4.18;;;24.40;61.40;;;;;;5057671;28;20024;-52
2023/06/27 09:52:57;;;;;;;47.63;5.15;;;24.40;61.40;;;;;;5050949;28;20049;-52
2023/06/27 09:55:22;;;;;;;55.70;5.10;;;24.40;61.30;;;;;;5061620;28;20033;-52
2023/06/27 09:57:48;;;;;;;31.00;4.30;;;24.50;61.20;;;;;;5061737;28;20775;-51
2023/06/27 10:00:14;;;;;;;14.50;3.00;;;24.50;61.10;;;;;;5047955;28;20115;-51
2023/06/27 10:02:40;;;;;;;15.68;3.20;;;24.50;61.10;;;;;;5030121;28;20029;-51
2023/06/27 10:05:06;;;;;;;24.75;4.38;;;24.50;61.20;;;;;;5046937;28;20029;-51
2023/06/27 10:07:32;;;;;;;23.13;4.38;;;24.50;61.30;;;;;;5064381;28;20029;-51
2023/06/27 10:09:57;;;;;;;23.70;3.70;;;24.50;61.40;;;;;;5050283;28;20017;-51
2023/06/27 10:12:23;;;;;;;11.20;3.15;;;24.50;61.60;;;;;;5069228;28;20029;-51
2023/06/27 10:14:49;;;;;;;16.30;3.40;;;24.50;61.60;;;;;;5063956;28;20538;-51
2023/06/27 10:17:21;;;;;;;16.13;3.72;;;24.50;61.60;;;;;;5038173;28;20052;-51
2023/06/27 10:19:46;;;;;;;34.33;4.75;;;24.50;61.70;;;;;;5045542;28;20021;-51
2023/06/27 10:22:17;;;;;;;20.70;4.28;;;24.50;61.70;;;;;;5041680;28;20043;-51
2023/06/27 10:24:43;;;;;;;18.92;3.17;;;24.50;61.60;;;;;;5044785;28;20025;-51
2023/06/27 10:27:12;;;;;;;17.05;3.42;;;24.50;61.60;;;;;;5045238;28;20373;-51
2023/06/27 10:29:41;;;;;;;19.90;3.58;;;24.50;61.50;;;;;;5032115;28;21987;-52
2023/06/27 10:32:10;;;;;;;30.55;5.35;;;24.50;61.60;;;;;;5042088;28;20045;-52
2023/06/27 10:34:40;;;;;;;34.30;5.07;;;24.50;61.70;;;;;;5028816;28;20092;-51
2023/06/27 10:37:06;;;;;;;18.83;5.10;;;24.60;61.60;;;;;;5061359;28;20029;-51
2023/06/27 10:39:33;;;;;;;22.15;4.40;;;24.60;62.10;;;;;;5048234;28;20024;-52
2023/06/27 10:42:04;;;;;;;25.13;4.35;;;24.60;61.40;;;;;;5055118;28;20037;-52
2023/06/27 10:44:31;;;;;;;29.95;4.82;;;24.60;61.20;;;;;;5058498;28;20040;-52
2023/06/27 10:47:15;;;;;;;25.05;4.85;;;24.70;61.30;;;;;;5047170;28;20028;-51
2023/06/27 10:49:41;;;;;;;30.67;5.13;;;24.70;62.00;;;;;;5073570;28;20103;-52
2023/06/27 10:52:07;;;;;;;37.17;5.03;;;24.70;61.10;;;;;;5045522;28;20025;-52
2023/06/27 10:54:33;;;;;;;26.17;4.50;;;24.80;61.20;;;;;;5051566;28;20067;-51
2023/06/27 10:56:59;;;;;;;32.83;5.55;;;24.80;61.20;;;;;;5065896;28;20098;-52
2023/06/27 10:59:24;;;;;;;21.95;4.50;;;24.90;61.20;;;;;;5028848;28;20067;-52
2023/06/27 11:02:00;;;;;;;25.50;4.55;;;24.90;61.80;;;;;;5064443;28;20052;-52
2023/06/27 11:04:39;;;;;;;22.08;4.55;;;25.00;61.00;;;;;;5052690;28;20044;-51
2023/06/27 11:07:07;;;;;;;21.33;3.55;;;25.10;61.00;;;;;;5067796;28;20028;-51
2023/06/27 11:09:36;;;;;;;31.50;4.57;;;25.10;61.00;;;;;;5041307;28;20163;-51
2023/06/27 11:12:14;;;;;;;37.55;6.72;;;25.10;60.90;;;;;;5047801;28;20021;-52
2023/06/27 11:14:41;;;;;;;45.33;6.05;;;25.20;61.00;;;;;;5042415;28;20033;-54
2023/06/27 11:17:07;;;;;;;144.77;14.85;;;25.20;61.00;;;;;;5012422;28;20040;-51
2023/06/27 11:19:34;;;;;;;58.03;6.63;;;25.20;61.70;;;;;;5013422;28;20029;-51
2023/06/27 11:22:01;;;;;;;41.13;5.88;;;25.30;61.30;;;;;;5046784;28;20112;-51
2023/06/27 11:24:26;;;;;;;93.82;10.93;;;25.30;61.80;;;;;;5071697;28;20021;-51
2023/06/27 11:26:52;;;;;;;37.50;6.18;;;25.40;61.20;;;;;;5038905;28;20024;-51
2023/06/27 11:29:18;;;;;;;41.17;5.88;;;25.40;60.80;;;;;;5054794;28;20035;-51
2023/06/27 11:31:43;;;;;;;38.85;6.55;;;25.50;60.80;;;;;;5052290;28;20032;-51
2023/06/27 11:34:09;;;;;;;31.42;6.65;;;25.50;60.60;;;;;;5045982;28;20082;-51
2023/06/27 11:36:40;;;;;;;39.03;5.30;;;25.50;60.50;;;;;;5062463;28;20033;-51
2023/06/27 11:39:07;;;;;;;25.75;4.68;;;25.60;60.40;;;;;;5036791;28;20030;-51
2023/06/27 11:41:33;;;;;;;35.30;5.20;;;25.60;60.10;;;;;;5028105;28;20025;-51
2023/06/27 11:43:59;;;;;;;24.10;4.97;;;25.60;60.00;;;;;;5049659;28;20044;-51
2023/06/27 11:46:25;;;;;;;24.40;4.68;;;25.60;60.20;;;;;;5049078;28;20037;-51
2023/06/27 11:48:51;;;;;;;22.33;4.63;;;25.60;60.00;;;;;;5067303;28;20028;-51
2023/06/27 11:51:17;;;;;;;37.28;5.15;;;25.70;60.00;;;;;;5015216;28;20954;-51
2023/06/27 11:53:49;;;;;;;55.45;7.50;;;25.80;59.90;;;;;;5065199;28;20118;-51
2023/06/27 11:56:15;;;;;;;36.70;6.90;;;25.80;59.70;;;;;;5072415;28;20041;-51
2023/06/27 11:58:40;;;;;;;45.85;7.10;;;25.90;59.60;;;;;;5030287;28;20048;-51
2023/06/27 12:01:16;;;;;;;44.15;7.28;;;25.90;59.50;;;;;;5066157;28;20034;-51
2023/06/27 12:03:49;;;;;;;47.67;6.57;;;26.00;59.50;;;;;;5050875;28;20032;-51
2023/06/27 12:06:44;;;;;;;64.60;10.40;;;26.00;59.30;;;;;;5043053;28;20029;-51
2023/06/27 12:09:24;;;;;;;63.42;11.15;;;26.00;59.30;;;;;;5060131;28;20045;-51
2023/06/27 12:11:58;;;;;;;96.68;13.93;;;26.00;59.00;;;;;;5038096;28;20039;-51
2023/06/27 12:14:24;;;;;;;44.55;7.60;;;26.10;59.00;;;;;;5042519;28;20048;-51
2023/06/27 12:16:49;;;;;;;54.85;8.15;;;26.10;58.70;;;;;;5035691;28;20822;-51
2023/06/27 12:19:18;;;;;;;56.45;8.68;;;26.20;58.50;;;;;;5049243;28;20068;-51
2023/06/27 12:21:43;;;;;;;45.63;7.97;;;26.20;58.60;;;;;;5055335;28;20053;-51
2023/06/27 12:24:09;;;;;;;53.42;7.85;;;26.20;58.20;;;;;;5055156;28;20056;-51
2023/06/27 12:26:34;;;;;;;56.05;8.00;;;26.20;58.10;;;;;;5066206;28;20040;-51
2023/06/27 12:29:01;;;;;;;51.33;8.05;;;26.30;58.10;;;;;;5062348;28;20598;-51
2023/06/27 12:31:27;;;;;;;50.25;6.82;;;26.30;58.10;;;;;;5049866;28;20024;-51
2023/06/27 12:33:52;;;;;;;34.50;5.55;;;26.30;57.80;;;;;;5062291;28;20504;-50
2023/06/27 12:36:19;;;;;;;37.60;6.70;;;26.30;57.90;;;;;;5047498;28;20040;-51
2023/06/27 12:38:45;;;;;;;38.55;6.50;;;26.40;57.80;;;;;;5048010;28;20032;-51
2023/06/27 12:41:11;;;;;;;31.77;5.32;;;26.40;57.40;;;;;;5051457;28;20025;-51